sensor_id;sensor_type;location;lat;lon;timestamp;temperature;humidity
13245;DHT22;6689;53.400;12.486;2022-09-21T00:01:31;10.70;99.90
13245;DHT22;6689;53.400;12.486;2022-09-21T00:04:01;10.70;99.90
13245;DHT22;6689;53.400;12.486;2022-09-21T00:06:34;10.70;99.90
13245;DHT22;6689;53.400;12.486;2022-09-21T00:09:03;10.60;99.90
13245;DHT22;6689;53.400;12.486;2022-09-21T00:11:39;10.70;99.90
13245;DHT22;6689;53.400;12.486;2022-09-21T00:14:13;10.70;99.90
13245;DHT22;6689;53.400;12.486;2022-09-21T00:16:41;10.60;99.90
13245;DHT22;6689;53.400;12.486;2022-09-21T00:19:10;10.60;99.90
13245;DHT22;6689;53.400;12.486;2022-09-21T00:21:42;10.60;99.90
13245;DHT22;6689;53.400;12.486;2022-09-21T00:24:11;10.60;99.90
13245;DHT22;6689;53.400;12.486;2022-09-21T00:26:39;10.40;99.90
13245;DHT22;6689;53.400;12.486;2022-09-21T00:29:08;10.50;99.90
13245;DHT22;6689;53.400;12.486;2022-09-21T00:31:37;10.50;99.90
13245;DHT22;6689;53.400;12.486;2022-09-21T00:34:05;10.50;99.90
13245;DHT22;6689;53.400;12.486;2022-09-21T00:36:35;10.50;99.90
13245;DHT22;6689;53.400;12.486;2022-09-21T00:39:08;10.50;99.90
13245;DHT22;6689;53.400;12.486;2022-09-21T00:41:37;10.50;99.90
13245;DHT22;6689;53.400;12.486;2022-09-21T00:44:28;10.40;99.90
13245;DHT22;6689;53.400;12.486;2022-09-21T00:47:04;10.40;99.90
13245;DHT22;6689;53.400;12.486;2022-09-21T00:49:36;10.40;99.90
13245;DHT22;6689;53.400;12.486;2022-09-21T00:52:07;10.40;99.90
13245;DHT22;6689;53.400;12.486;2022-09-21T00:54:41;10.40;99.90
13245;DHT22;6689;53.400;12.486;2022-09-21T00:57:10;10.40;99.90
13245;DHT22;6689;53.400;12.486;2022-09-21T00:59:39;10.50;99.90
13245;DHT22;6689;53.400;12.486;2022-09-21T01:02:09;10.40;99.90
13245;DHT22;6689;53.400;12.486;2022-09-21T01:04:37;10.40;99.90
13245;DHT22;6689;53.400;12.486;2022-09-21T01:07:11;10.30;99.90
13245;DHT22;6689;53.400;12.486;2022-09-21T01:09:50;10.30;99.90
13245;DHT22;6689;53.400;12.486;2022-09-21T01:12:29;10.30;99.90
13245;DHT22;6689;53.400;12.486;2022-09-21T01:15:22;10.30;99.90
13245;DHT22;6689;53.400;12.486;2022-09-21T01:18:01;10.20;99.90
13245;DHT22;6689;53.400;12.486;2022-09-21T01:20:51;10.10;99.90
13245;DHT22;6689;53.400;12.486;2022-09-21T01:23:49;10.10;99.90
13245;DHT22;6689;53.400;12.486;2022-09-21T01:26:26;10.10;99.90
13245;DHT22;6689;53.400;12.486;2022-09-21T01:29:12;10.00;99.90
13245;DHT22;6689;53.400;12.486;2022-09-21T01:31:50;10.00;99.90
13245;DHT22;6689;53.400;12.486;2022-09-21T01:34:24;10.00;99.90
13245;DHT22;6689;53.400;12.486;2022-09-21T01:36:59;10.00;99.90
13245;DHT22;6689;53.400;12.486;2022-09-21T01:39:30;9.90;99.90
13245;DHT22;6689;53.400;12.486;2022-09-21T01:42:01;9.90;99.90
13245;DHT22;6689;53.400;12.486;2022-09-21T01:44:33;9.90;99.90
13245;DHT22;6689;53.400;12.486;2022-09-21T01:47:02;9.90;99.90
13245;DHT22;6689;53.400;12.486;2022-09-21T01:49:35;9.90;99.90
13245;DHT22;6689;53.400;12.486;2022-09-21T01:52:09;9.90;99.90
13245;DHT22;6689;53.400;12.486;2022-09-21T01:54:41;9.90;99.90
13245;DHT22;6689;53.400;12.486;2022-09-21T01:57:14;9.90;99.90
13245;DHT22;6689;53.400;12.486;2022-09-21T01:59:50;9.90;99.90
13245;DHT22;6689;53.400;12.486;2022-09-21T02:02:23;9.90;99.90
13245;DHT22;6689;53.400;12.486;2022-09-21T02:04:51;9.90;99.90
13245;DHT22;6689;53.400;12.486;2022-09-21T02:07:19;9.80;99.90
13245;DHT22;6689;53.400;12.486;2022-09-21T02:09:50;9.80;99.90
13245;DHT22;6689;53.400;12.486;2022-09-21T02:12:21;9.80;99.90
13245;DHT22;6689;53.400;12.486;2022-09-21T02:14:54;9.60;99.90
13245;DHT22;6689;53.400;12.486;2022-09-21T02:17:32;9.80;99.90
13245;DHT22;6689;53.400;12.486;2022-09-21T02:20:08;9.70;99.90
13245;DHT22;6689;53.400;12.486;2022-09-21T02:22:53;9.70;99.90
13245;DHT22;6689;53.400;12.486;2022-09-21T02:25:32;9.70;99.90
13245;DHT22;6689;53.400;12.486;2022-09-21T02:28:06;9.70;99.90
13245;DHT22;6689;53.400;12.486;2022-09-21T02:30:37;9.70;99.90
13245;DHT22;6689;53.400;12.486;2022-09-21T02:33:10;9.70;99.90
13245;DHT22;6689;53.400;12.486;2022-09-21T02:35:45;9.70;99.90
13245;DHT22;6689;53.400;12.486;2022-09-21T02:38:23;9.70;99.90
13245;DHT22;6689;53.400;12.486;2022-09-21T02:40:57;9.70;99.90
13245;DHT22;6689;53.400;12.486;2022-09-21T02:43:31;9.60;99.90
13245;DHT22;6689;53.400;12.486;2022-09-21T02:46:05;9.60;99.90
13245;DHT22;6689;53.400;12.486;2022-09-21T02:48:37;9.60;99.90
13245;DHT22;6689;53.400;12.486;2022-09-21T02:51:09;9.60;99.90
13245;DHT22;6689;53.400;12.486;2022-09-21T02:53:39;9.50;99.90
13245;DHT22;6689;53.400;12.486;2022-09-21T02:56:13;9.50;99.90
13245;DHT22;6689;53.400;12.486;2022-09-21T02:58:44;9.50;99.90
13245;DHT22;6689;53.400;12.486;2022-09-21T03:01:19;9.50;99.90
13245;DHT22;6689;53.400;12.486;2022-09-21T03:03:50;9.50;99.90
13245;DHT22;6689;53.400;12.486;2022-09-21T03:06:19;9.40;99.90
13245;DHT22;6689;53.400;12.486;2022-09-21T03:08:47;9.40;99.90
13245;DHT22;6689;53.400;12.486;2022-09-21T03:11:17;9.40;99.90
13245;DHT22;6689;53.400;12.486;2022-09-21T03:13:48;9.40;99.90
13245;DHT22;6689;53.400;12.486;2022-09-21T03:16:19;9.40;99.90
13245;DHT22;6689;53.400;12.486;2022-09-21T03:18:47;9.40;99.90
13245;DHT22;6689;53.400;12.486;2022-09-21T03:21:15;9.40;99.90
13245;DHT22;6689;53.400;12.486;2022-09-21T03:23:43;9.40;99.90
13245;DHT22;6689;53.400;12.486;2022-09-21T03:26:11;9.40;99.90
13245;DHT22;6689;53.400;12.486;2022-09-21T03:28:39;9.40;99.90
13245;DHT22;6689;53.400;12.486;2022-09-21T03:31:07;9.30;99.90
13245;DHT22;6689;53.400;12.486;2022-09-21T03:33:41;9.30;99.90
13245;DHT22;6689;53.400;12.486;2022-09-21T03:36:11;9.30;99.90
13245;DHT22;6689;53.400;12.486;2022-09-21T03:38:39;9.20;1.00
13245;DHT22;6689;53.400;12.486;2022-09-21T03:41:07;9.20;1.00
13245;DHT22;6689;53.400;12.486;2022-09-21T03:43:37;9.20;1.00
13245;DHT22;6689;53.400;12.486;2022-09-21T03:46:04;9.20;1.00
13245;DHT22;6689;53.400;12.486;2022-09-21T03:48:34;9.20;1.00
13245;DHT22;6689;53.400;12.486;2022-09-21T03:51:05;9.20;1.00
13245;DHT22;6689;53.400;12.486;2022-09-21T03:53:33;9.20;1.00
13245;DHT22;6689;53.400;12.486;2022-09-21T03:56:01;9.20;1.00
13245;DHT22;6689;53.400;12.486;2022-09-21T03:58:30;9.20;1.00
13245;DHT22;6689;53.400;12.486;2022-09-21T04:01:01;9.10;1.00
13245;DHT22;6689;53.400;12.486;2022-09-21T04:03:29;9.10;1.00
13245;DHT22;6689;53.400;12.486;2022-09-21T04:05:56;9.10;1.00
13245;DHT22;6689;53.400;12.486;2022-09-21T04:08:25;9.10;1.00
13245;DHT22;6689;53.400;12.486;2022-09-21T04:10:52;9.10;1.00
13245;DHT22;6689;53.400;12.486;2022-09-21T04:13:20;9.10;1.00
13245;DHT22;6689;53.400;12.486;2022-09-21T04:15:49;9.10;1.00
13245;DHT22;6689;53.400;12.486;2022-09-21T04:18:16;9.10;1.00
13245;DHT22;6689;53.400;12.486;2022-09-21T04:20:45;9.00;1.00
13245;DHT22;6689;53.400;12.486;2022-09-21T04:23:12;9.00;1.00
13245;DHT22;6689;53.400;12.486;2022-09-21T04:25:42;9.00;1.00
13245;DHT22;6689;53.400;12.486;2022-09-21T04:28:11;9.00;1.00
13245;DHT22;6689;53.400;12.486;2022-09-21T04:30:38;9.00;1.00
13245;DHT22;6689;53.400;12.486;2022-09-21T04:33:05;8.90;1.00
13245;DHT22;6689;53.400;12.486;2022-09-21T04:35:32;8.90;1.00
13245;DHT22;6689;53.400;12.486;2022-09-21T04:38:00;8.90;1.00
13245;DHT22;6689;53.400;12.486;2022-09-21T04:40:28;8.90;1.00
13245;DHT22;6689;53.400;12.486;2022-09-21T04:42:58;8.90;1.00
13245;DHT22;6689;53.400;12.486;2022-09-21T04:45:26;8.90;1.00
13245;DHT22;6689;53.400;12.486;2022-09-21T04:47:54;9.00;1.00
13245;DHT22;6689;53.400;12.486;2022-09-21T04:50:21;8.90;1.00
13245;DHT22;6689;53.400;12.486;2022-09-21T04:52:50;9.10;1.00
13245;DHT22;6689;53.400;12.486;2022-09-21T04:55:18;8.90;1.00
13245;DHT22;6689;53.400;12.486;2022-09-21T04:57:47;8.90;1.00
13245;DHT22;6689;53.400;12.486;2022-09-21T05:00:16;8.90;1.00
13245;DHT22;6689;53.400;12.486;2022-09-21T05:02:47;8.90;1.00
13245;DHT22;6689;53.400;12.486;2022-09-21T05:05:15;8.90;1.00
13245;DHT22;6689;53.400;12.486;2022-09-21T05:07:42;8.90;1.00
13245;DHT22;6689;53.400;12.486;2022-09-21T05:10:10;8.90;1.00
13245;DHT22;6689;53.400;12.486;2022-09-21T05:12:36;8.90;1.00
13245;DHT22;6689;53.400;12.486;2022-09-21T05:15:05;8.90;1.00
13245;DHT22;6689;53.400;12.486;2022-09-21T05:17:34;8.90;1.00
13245;DHT22;6689;53.400;12.486;2022-09-21T05:20:03;8.90;1.00
13245;DHT22;6689;53.400;12.486;2022-09-21T05:22:31;8.90;1.00
13245;DHT22;6689;53.400;12.486;2022-09-21T05:24:58;8.90;1.00
13245;DHT22;6689;53.400;12.486;2022-09-21T05:27:27;8.90;1.00
13245;DHT22;6689;53.400;12.486;2022-09-21T05:29:55;9.00;1.00
13245;DHT22;6689;53.400;12.486;2022-09-21T05:32:26;8.90;1.00
13245;DHT22;6689;53.400;12.486;2022-09-21T05:35:04;8.90;1.00
13245;DHT22;6689;53.400;12.486;2022-09-21T05:37:47;8.90;1.00
13245;DHT22;6689;53.400;12.486;2022-09-21T05:40:16;9.00;1.00
13245;DHT22;6689;53.400;12.486;2022-09-21T05:42:45;9.00;1.00
13245;DHT22;6689;53.400;12.486;2022-09-21T05:45:14;9.00;1.00
13245;DHT22;6689;53.400;12.486;2022-09-21T05:47:53;9.00;1.00
13245;DHT22;6689;53.400;12.486;2022-09-21T05:50:35;9.00;1.00
13245;DHT22;6689;53.400;12.486;2022-09-21T05:53:16;9.10;1.00
13245;DHT22;6689;53.400;12.486;2022-09-21T05:55:53;9.10;1.00
13245;DHT22;6689;53.400;12.486;2022-09-21T05:58:31;9.10;1.00
13245;DHT22;6689;53.400;12.486;2022-09-21T06:01:19;9.30;69.00
13245;DHT22;6689;53.400;12.486;2022-09-21T06:03:53;9.20;61.60
13245;DHT22;6689;53.400;12.486;2022-09-21T06:06:23;9.30;47.50
13245;DHT22;6689;53.400;12.486;2022-09-21T06:08:51;9.30;99.90
13245;DHT22;6689;53.400;12.486;2022-09-21T06:11:18;9.40;99.90
13245;DHT22;6689;53.400;12.486;2022-09-21T06:13:47;9.40;99.90
13245;DHT22;6689;53.400;12.486;2022-09-21T06:16:16;9.50;99.90
13245;DHT22;6689;53.400;12.486;2022-09-21T06:18:43;9.60;99.90
13245;DHT22;6689;53.400;12.486;2022-09-21T06:21:11;9.60;99.90
13245;DHT22;6689;53.400;12.486;2022-09-21T06:23:39;9.70;99.90
13245;DHT22;6689;53.400;12.486;2022-09-21T06:26:07;9.80;99.90
13245;DHT22;6689;53.400;12.486;2022-09-21T06:28:35;9.80;99.90
13245;DHT22;6689;53.400;12.486;2022-09-21T06:31:02;9.90;99.90
13245;DHT22;6689;53.400;12.486;2022-09-21T06:33:29;9.90;99.90
13245;DHT22;6689;53.400;12.486;2022-09-21T06:35:58;10.00;99.90
13245;DHT22;6689;53.400;12.486;2022-09-21T06:38:28;10.10;99.90
13245;DHT22;6689;53.400;12.486;2022-09-21T06:41:02;10.30;99.90
13245;DHT22;6689;53.400;12.486;2022-09-21T06:43:31;10.50;99.90
13245;DHT22;6689;53.400;12.486;2022-09-21T06:45:59;11.10;99.90
13245;DHT22;6689;53.400;12.486;2022-09-21T06:48:31;11.50;99.90
13245;DHT22;6689;53.400;12.486;2022-09-21T06:51:00;12.00;99.90
13245;DHT22;6689;53.400;12.486;2022-09-21T06:53:29;12.50;99.90
13245;DHT22;6689;53.400;12.486;2022-09-21T06:56:06;13.00;99.90
13245;DHT22;6689;53.400;12.486;2022-09-21T06:58:34;13.60;99.90
13245;DHT22;6689;53.400;12.486;2022-09-21T07:01:04;14.20;93.50
13245;DHT22;6689;53.400;12.486;2022-09-21T07:03:32;14.70;1.00
13245;DHT22;6689;53.400;12.486;2022-09-21T07:05:59;15.50;1.00
13245;DHT22;6689;53.400;12.486;2022-09-21T07:08:27;16.10;1.00
13245;DHT22;6689;53.400;12.486;2022-09-21T07:10:57;17.00;1.00
13245;DHT22;6689;53.400;12.486;2022-09-21T07:13:26;18.00;99.90
13245;DHT22;6689;53.400;12.486;2022-09-21T07:15:54;19.20;99.90
13245;DHT22;6689;53.400;12.486;2022-09-21T07:18:24;20.20;81.50
13245;DHT22;6689;53.400;12.486;2022-09-21T07:20:53;21.60;1.00
13245;DHT22;6689;53.400;12.486;2022-09-21T07:23:20;23.10;1.00
13245;DHT22;6689;53.400;12.486;2022-09-21T07:25:48;24.80;1.00
13245;DHT22;6689;53.400;12.486;2022-09-21T07:28:18;25.90;1.00
13245;DHT22;6689;53.400;12.486;2022-09-21T07:30:48;26.90;1.00
13245;DHT22;6689;53.400;12.486;2022-09-21T07:33:16;27.70;1.00
13245;DHT22;6689;53.400;12.486;2022-09-21T07:35:50;28.70;1.00
13245;DHT22;6689;53.400;12.486;2022-09-21T07:38:18;29.20;1.00
13245;DHT22;6689;53.400;12.486;2022-09-21T07:40:45;29.80;1.00
13245;DHT22;6689;53.400;12.486;2022-09-21T07:43:14;30.50;1.00
13245;DHT22;6689;53.400;12.486;2022-09-21T07:45:53;30.80;1.00
13245;DHT22;6689;53.400;12.486;2022-09-21T07:48:21;31.60;1.00
13245;DHT22;6689;53.400;12.486;2022-09-21T07:50:49;32.10;1.00
13245;DHT22;6689;53.400;12.486;2022-09-21T07:53:17;32.30;99.90
13245;DHT22;6689;53.400;12.486;2022-09-21T07:55:44;33.00;99.90
13245;DHT22;6689;53.400;12.486;2022-09-21T07:58:13;33.20;99.90
13245;DHT22;6689;53.400;12.486;2022-09-21T08:01:04;33.70;99.90
13245;DHT22;6689;53.400;12.486;2022-09-21T08:03:32;33.70;99.90
13245;DHT22;6689;53.400;12.486;2022-09-21T08:05:59;33.60;99.90
13245;DHT22;6689;53.400;12.486;2022-09-21T08:08:27;34.50;99.90
13245;DHT22;6689;53.400;12.486;2022-09-21T08:10:54;34.50;99.90
13245;DHT22;6689;53.400;12.486;2022-09-21T08:13:22;35.00;99.90
13245;DHT22;6689;53.400;12.486;2022-09-21T08:15:58;35.30;99.90
13245;DHT22;6689;53.400;12.486;2022-09-21T08:18:26;35.70;99.90
13245;DHT22;6689;53.400;12.486;2022-09-21T08:20:54;33.90;99.90
13245;DHT22;6689;53.400;12.486;2022-09-21T08:23:22;34.80;99.90
13245;DHT22;6689;53.400;12.486;2022-09-21T08:25:50;35.00;99.90
13245;DHT22;6689;53.400;12.486;2022-09-21T08:28:19;35.30;99.90
13245;DHT22;6689;53.400;12.486;2022-09-21T08:30:47;35.20;99.90
13245;DHT22;6689;53.400;12.486;2022-09-21T08:33:17;35.30;99.90
13245;DHT22;6689;53.400;12.486;2022-09-21T08:35:51;35.50;99.90
13245;DHT22;6689;53.400;12.486;2022-09-21T08:38:19;34.90;99.90
13245;DHT22;6689;53.400;12.486;2022-09-21T08:40:48;34.10;99.90
13245;DHT22;6689;53.400;12.486;2022-09-21T08:43:18;34.00;99.90
13245;DHT22;6689;53.400;12.486;2022-09-21T08:46:16;34.00;99.90
13245;DHT22;6689;53.400;12.486;2022-09-21T08:48:49;32.30;99.90
13245;DHT22;6689;53.400;12.486;2022-09-21T08:51:22;29.70;1.00
13245;DHT22;6689;53.400;12.486;2022-09-21T08:53:52;26.20;1.00
13245;DHT22;6689;53.400;12.486;2022-09-21T08:56:25;24.70;1.00
13245;DHT22;6689;53.400;12.486;2022-09-21T08:58:54;23.40;1.00
13245;DHT22;6689;53.400;12.486;2022-09-21T09:01:30;22.40;1.00
13245;DHT22;6689;53.400;12.486;2022-09-21T09:04:14;21.50;1.00
13245;DHT22;6689;53.400;12.486;2022-09-21T09:06:49;20.60;1.00
13245;DHT22;6689;53.400;12.486;2022-09-21T09:09:29;20.00;1.00
13245;DHT22;6689;53.400;12.486;2022-09-21T09:15:17;19.30;1.00
13245;DHT22;6689;53.400;12.486;2022-09-21T09:17:54;19.20;1.00
13245;DHT22;6689;53.400;12.486;2022-09-21T09:20:30;19.10;1.00
13245;DHT22;6689;53.400;12.486;2022-09-21T09:23:05;19.00;2.60
13245;DHT22;6689;53.400;12.486;2022-09-21T09:25:38;19.00;1.00
13245;DHT22;6689;53.400;12.486;2022-09-21T09:28:17;18.60;1.00
13245;DHT22;6689;53.400;12.486;2022-09-21T09:30:56;18.50;1.00
13245;DHT22;6689;53.400;12.486;2022-09-21T09:33:29;18.50;18.00
13245;DHT22;6689;53.400;12.486;2022-09-21T09:36:01;18.40;21.00
13245;DHT22;6689;53.400;12.486;2022-09-21T09:38:35;18.40;30.70
13245;DHT22;6689;53.400;12.486;2022-09-21T09:41:26;18.40;31.20
13245;DHT22;6689;53.400;12.486;2022-09-21T09:44:05;18.50;37.60
13245;DHT22;6689;53.400;12.486;2022-09-21T09:46:44;18.70;1.00
13245;DHT22;6689;53.400;12.486;2022-09-21T09:49:29;18.80;1.00
13245;DHT22;6689;53.400;12.486;2022-09-21T09:52:03;18.80;1.00
13245;DHT22;6689;53.400;12.486;2022-09-21T09:54:33;18.80;1.00
13245;DHT22;6689;53.400;12.486;2022-09-21T09:57:02;19.00;1.00
13245;DHT22;6689;53.400;12.486;2022-09-21T09:59:34;19.20;1.00
13245;DHT22;6689;53.400;12.486;2022-09-21T10:02:03;19.30;4.00
13245;DHT22;6689;53.400;12.486;2022-09-21T10:04:31;19.30;1.00
13245;DHT22;6689;53.400;12.486;2022-09-21T10:06:59;19.20;1.00
13245;DHT22;6689;53.400;12.486;2022-09-21T10:09:31;19.20;1.00
13245;DHT22;6689;53.400;12.486;2022-09-21T10:12:02;19.00;1.00
13245;DHT22;6689;53.400;12.486;2022-09-21T10:14:33;18.70;1.00
13245;DHT22;6689;53.400;12.486;2022-09-21T10:17:04;18.90;1.00
13245;DHT22;6689;53.400;12.486;2022-09-21T10:19:32;19.00;1.00
13245;DHT22;6689;53.400;12.486;2022-09-21T10:22:01;19.20;1.00
13245;DHT22;6689;53.400;12.486;2022-09-21T10:24:32;19.20;1.00
13245;DHT22;6689;53.400;12.486;2022-09-21T10:27:05;19.30;1.00
13245;DHT22;6689;53.400;12.486;2022-09-21T10:29:40;19.20;1.00
13245;DHT22;6689;53.400;12.486;2022-09-21T10:32:20;19.50;1.00
13245;DHT22;6689;53.400;12.486;2022-09-21T10:35:14;19.60;1.00
13245;DHT22;6689;53.400;12.486;2022-09-21T10:37:45;19.90;1.00
13245;DHT22;6689;53.400;12.486;2022-09-21T10:40:29;20.00;1.00
13245;DHT22;6689;53.400;12.486;2022-09-21T10:43:01;20.20;1.00
13245;DHT22;6689;53.400;12.486;2022-09-21T10:45:29;20.40;1.00
13245;DHT22;6689;53.400;12.486;2022-09-21T10:48:05;20.50;1.00
13245;DHT22;6689;53.400;12.486;2022-09-21T10:50:36;20.60;1.00
13245;DHT22;6689;53.400;12.486;2022-09-21T10:53:21;20.70;1.00
13245;DHT22;6689;53.400;12.486;2022-09-21T10:55:56;20.50;1.00
13245;DHT22;6689;53.400;12.486;2022-09-21T10:58:25;20.40;1.00
13245;DHT22;6689;53.400;12.486;2022-09-21T11:00:54;20.20;1.00
13245;DHT22;6689;53.400;12.486;2022-09-21T11:03:33;20.40;1.00
13245;DHT22;6689;53.400;12.486;2022-09-21T11:06:07;20.40;1.00
13245;DHT22;6689;53.400;12.486;2022-09-21T11:08:39;20.60;1.00
13245;DHT22;6689;53.400;12.486;2022-09-21T11:11:31;20.60;1.00
13245;DHT22;6689;53.400;12.486;2022-09-21T11:14:09;20.60;1.00
13245;DHT22;6689;53.400;12.486;2022-09-21T11:16:47;20.60;1.00
13245;DHT22;6689;53.400;12.486;2022-09-21T11:19:31;20.60;1.00
13245;DHT22;6689;53.400;12.486;2022-09-21T11:22:06;20.50;1.00
13245;DHT22;6689;53.400;12.486;2022-09-21T11:24:41;20.30;1.00
13245;DHT22;6689;53.400;12.486;2022-09-21T11:27:16;20.20;1.00
13245;DHT22;6689;53.400;12.486;2022-09-21T11:29:52;20.20;1.00
13245;DHT22;6689;53.400;12.486;2022-09-21T11:32:42;20.20;1.00
13245;DHT22;6689;53.400;12.486;2022-09-21T11:35:44;20.30;1.00
13245;DHT22;6689;53.400;12.486;2022-09-21T11:38:24;20.30;1.00
13245;DHT22;6689;53.400;12.486;2022-09-21T11:41:19;19.90;1.00
13245;DHT22;6689;53.400;12.486;2022-09-21T11:44:12;19.70;1.00
13245;DHT22;6689;53.400;12.486;2022-09-21T11:46:48;19.80;1.00
13245;DHT22;6689;53.400;12.486;2022-09-21T11:52:20;20.10;1.00
13245;DHT22;6689;53.400;12.486;2022-09-21T11:55:19;20.40;1.00
13245;DHT22;6689;53.400;12.486;2022-09-21T11:57:53;20.60;1.00
13245;DHT22;6689;53.400;12.486;2022-09-21T12:00:25;20.80;1.00
13245;DHT22;6689;53.400;12.486;2022-09-21T12:06:05;21.00;1.00
13245;DHT22;6689;53.400;12.486;2022-09-21T12:11:52;21.10;1.00
13245;DHT22;6689;53.400;12.486;2022-09-21T12:14:29;20.90;1.00
13245;DHT22;6689;53.400;12.486;2022-09-21T12:17:07;21.00;1.00
13245;DHT22;6689;53.400;12.486;2022-09-21T12:19:43;21.00;1.00
13245;DHT22;6689;53.400;12.486;2022-09-21T12:22:15;21.10;1.00
13245;DHT22;6689;53.400;12.486;2022-09-21T12:24:46;21.20;1.00
13245;DHT22;6689;53.400;12.486;2022-09-21T12:27:22;21.10;1.00
13245;DHT22;6689;53.400;12.486;2022-09-21T12:29:57;21.10;1.00
13245;DHT22;6689;53.400;12.486;2022-09-21T12:32:42;20.80;1.00
13245;DHT22;6689;53.400;12.486;2022-09-21T12:35:16;20.70;1.00
13245;DHT22;6689;53.400;12.486;2022-09-21T12:37:48;20.90;1.00
13245;DHT22;6689;53.400;12.486;2022-09-21T12:40:20;21.00;1.00
13245;DHT22;6689;53.400;12.486;2022-09-21T12:42:54;21.10;1.00
13245;DHT22;6689;53.400;12.486;2022-09-21T12:45:27;20.90;1.00
13245;DHT22;6689;53.400;12.486;2022-09-21T12:48:03;21.00;1.00
13245;DHT22;6689;53.400;12.486;2022-09-21T12:50:34;21.00;1.00
13245;DHT22;6689;53.400;12.486;2022-09-21T12:53:03;21.10;1.00
13245;DHT22;6689;53.400;12.486;2022-09-21T12:55:41;21.20;1.00
13245;DHT22;6689;53.400;12.486;2022-09-21T12:58:22;20.90;1.00
13245;DHT22;6689;53.400;12.486;2022-09-21T13:00:59;21.10;1.00
13245;DHT22;6689;53.400;12.486;2022-09-21T13:03:35;21.20;1.00
13245;DHT22;6689;53.400;12.486;2022-09-21T13:09:05;21.40;1.00
13245;DHT22;6689;53.400;12.486;2022-09-21T13:11:51;21.40;1.00
13245;DHT22;6689;53.400;12.486;2022-09-21T13:14:22;21.40;1.00
13245;DHT22;6689;53.400;12.486;2022-09-21T13:16:58;21.50;1.00
13245;DHT22;6689;53.400;12.486;2022-09-21T13:19:30;21.50;1.00
13245;DHT22;6689;53.400;12.486;2022-09-21T13:22:18;21.60;1.00
13245;DHT22;6689;53.400;12.486;2022-09-21T13:25:02;21.70;1.00
13245;DHT22;6689;53.400;12.486;2022-09-21T13:27:55;21.70;1.00
13245;DHT22;6689;53.400;12.486;2022-09-21T13:30:33;21.70;1.00
13245;DHT22;6689;53.400;12.486;2022-09-21T13:33:02;21.60;1.00
13245;DHT22;6689;53.400;12.486;2022-09-21T13:35:51;21.50;1.00
13245;DHT22;6689;53.400;12.486;2022-09-21T13:38:23;21.50;1.00
13245;DHT22;6689;53.400;12.486;2022-09-21T13:40:57;20.90;1.00
13245;DHT22;6689;53.400;12.486;2022-09-21T13:44:01;21.00;1.00
13245;DHT22;6689;53.400;12.486;2022-09-21T13:46:51;20.90;1.00
13245;DHT22;6689;53.400;12.486;2022-09-21T13:52:18;20.90;1.00
13245;DHT22;6689;53.400;12.486;2022-09-21T13:54:53;21.00;1.00
13245;DHT22;6689;53.400;12.486;2022-09-21T13:57:38;20.90;1.00
13245;DHT22;6689;53.400;12.486;2022-09-21T14:00:35;20.80;1.00
13245;DHT22;6689;53.400;12.486;2022-09-21T14:03:15;20.90;1.00
13245;DHT22;6689;53.400;12.486;2022-09-21T14:05:44;20.80;1.00
13245;DHT22;6689;53.400;12.486;2022-09-21T14:08:25;20.80;1.00
13245;DHT22;6689;53.400;12.486;2022-09-21T14:10:55;20.60;1.00
13245;DHT22;6689;53.400;12.486;2022-09-21T14:13:31;20.70;1.00
13245;DHT22;6689;53.400;12.486;2022-09-21T14:16:25;20.50;1.00
13245;DHT22;6689;53.400;12.486;2022-09-21T14:18:54;20.40;1.00
13245;DHT22;6689;53.400;12.486;2022-09-21T14:21:24;20.30;1.00
13245;DHT22;6689;53.400;12.486;2022-09-21T14:24:21;20.40;1.00
13245;DHT22;6689;53.400;12.486;2022-09-21T14:27:05;20.30;1.00
13245;DHT22;6689;53.400;12.486;2022-09-21T14:29:43;20.10;1.00
13245;DHT22;6689;53.400;12.486;2022-09-21T14:32:15;20.30;1.00
13245;DHT22;6689;53.400;12.486;2022-09-21T14:34:46;20.30;1.00
13245;DHT22;6689;53.400;12.486;2022-09-21T14:37:35;20.30;1.00
13245;DHT22;6689;53.400;12.486;2022-09-21T14:40:17;20.10;1.00
13245;DHT22;6689;53.400;12.486;2022-09-21T14:42:47;20.00;1.00
13245;DHT22;6689;53.400;12.486;2022-09-21T14:45:17;20.10;1.00
13245;DHT22;6689;53.400;12.486;2022-09-21T14:47:54;20.00;1.00
13245;DHT22;6689;53.400;12.486;2022-09-21T14:50:32;19.90;1.00
13245;DHT22;6689;53.400;12.486;2022-09-21T14:53:25;19.80;1.00
13245;DHT22;6689;53.400;12.486;2022-09-21T14:56:16;19.80;1.00
13245;DHT22;6689;53.400;12.486;2022-09-21T14:58:57;19.80;1.00
13245;DHT22;6689;53.400;12.486;2022-09-21T15:01:37;19.70;1.00
13245;DHT22;6689;53.400;12.486;2022-09-21T15:04:24;19.60;1.00
13245;DHT22;6689;53.400;12.486;2022-09-21T15:07:01;19.50;1.00
13245;DHT22;6689;53.400;12.486;2022-09-21T15:10:14;19.50;1.00
13245;DHT22;6689;53.400;12.486;2022-09-21T15:13:21;19.30;1.00
13245;DHT22;6689;53.400;12.486;2022-09-21T15:16:12;19.30;1.00
13245;DHT22;6689;53.400;12.486;2022-09-21T15:18:45;19.30;1.00
13245;DHT22;6689;53.400;12.486;2022-09-21T15:21:21;19.30;1.00
13245;DHT22;6689;53.400;12.486;2022-09-21T15:23:51;19.30;1.00
13245;DHT22;6689;53.400;12.486;2022-09-21T15:26:22;19.30;1.00
13245;DHT22;6689;53.400;12.486;2022-09-21T15:28:55;19.30;1.00
13245;DHT22;6689;53.400;12.486;2022-09-21T15:31:24;19.20;1.00
13245;DHT22;6689;53.400;12.486;2022-09-21T15:33:52;19.20;1.00
13245;DHT22;6689;53.400;12.486;2022-09-21T15:36:20;19.20;1.00
13245;DHT22;6689;53.400;12.486;2022-09-21T15:38:51;19.10;1.00
13245;DHT22;6689;53.400;12.486;2022-09-21T15:41:42;19.10;1.00
13245;DHT22;6689;53.400;12.486;2022-09-21T15:44:17;19.00;1.00
13245;DHT22;6689;53.400;12.486;2022-09-21T15:46:50;18.90;1.00
13245;DHT22;6689;53.400;12.486;2022-09-21T15:49:20;18.80;1.00
13245;DHT22;6689;53.400;12.486;2022-09-21T15:51:50;18.70;1.00
13245;DHT22;6689;53.400;12.486;2022-09-21T15:54:28;18.60;1.00
13245;DHT22;6689;53.400;12.486;2022-09-21T15:56:59;18.60;1.00
13245;DHT22;6689;53.400;12.486;2022-09-21T15:59:29;18.50;1.00
13245;DHT22;6689;53.400;12.486;2022-09-21T16:01:58;18.50;1.00
13245;DHT22;6689;53.400;12.486;2022-09-21T16:04:29;18.30;1.00
13245;DHT22;6689;53.400;12.486;2022-09-21T16:07:03;18.30;1.00
13245;DHT22;6689;53.400;12.486;2022-09-21T16:09:39;18.20;1.00
13245;DHT22;6689;53.400;12.486;2022-09-21T16:15:16;18.10;1.00
13245;DHT22;6689;53.400;12.486;2022-09-21T16:17:57;18.00;1.00
13245;DHT22;6689;53.400;12.486;2022-09-21T16:20:40;17.90;1.00
13245;DHT22;6689;53.400;12.486;2022-09-21T16:23:14;17.90;1.00
13245;DHT22;6689;53.400;12.486;2022-09-21T16:25:58;17.70;1.00
13245;DHT22;6689;53.400;12.486;2022-09-21T16:28:32;17.70;1.00
13245;DHT22;6689;53.400;12.486;2022-09-21T16:31:20;17.60;1.00
13245;DHT22;6689;53.400;12.486;2022-09-21T16:34:02;17.50;1.00
13245;DHT22;6689;53.400;12.486;2022-09-21T16:36:40;17.50;1.00
13245;DHT22;6689;53.400;12.486;2022-09-21T16:39:10;17.40;1.00
13245;DHT22;6689;53.400;12.486;2022-09-21T16:41:49;17.30;1.00
13245;DHT22;6689;53.400;12.486;2022-09-21T16:44:19;17.20;1.00
13245;DHT22;6689;53.400;12.486;2022-09-21T16:47:00;17.20;1.00
13245;DHT22;6689;53.400;12.486;2022-09-21T16:49:30;17.10;1.00